Slotergracht — PDBP — position and weather

sailwx.info

Track history (hours):
 
Tides and Currents Weather Stations Pressure Air Temp Water Temp Dewpoint Dewpoint Depression Visibility Wind Speed Wind Dir Waves Ship Positions

Slotergracht

Last reported at 2018-Jan-23 07:07 UTC. Time now 2018-Jan-23 10:13 UTC.
Position N 54°24' E 011°47'.

Length 168 m; beam 25 m.

Type: Cargo ship. MMSI: 246456000.

Date/timePositionNaut miles runAvg speedWind from/ knotsBaromVisibWave heightAir tempDewpointWater temp
2018-Jan-23 07:07N 54°24' E 011°47'216.5
2018-Jan-23 07:00N 54°25' E 011°44'816.1
2018-Jan-23 06:30N 54°29' E 011°32'816.5
2018-Jan-23 06:00N 54°32' E 011°19'816.0
2018-Jan-23 05:30N 54°35' E 011°06'816.2
2018-Jan-23 05:00N 54°38' E 010°53'714.3
2018-Jan-23 04:30N 54°44' E 010°47'714.8
2018-Jan-23 04:00N 54°51' E 010°50'612.8
2018-Jan-23 03:30N 54°57' E 010°54'613.1
2018-Jan-23 03:00N 55°03' E 011°00'713.6
2018-Jan-23 02:30N 55°09' E 010°60'510.8
2018-Jan-23 02:00N 55°14' E 011°06'611.2
2018-Jan-23 01:28N 55°19' E 011°02'10113.7
2018-Jan-22 18:07N 56°57' E 011°45'216.3
2018-Jan-22 18:00N 56°59' E 011°44'816.8
2018-Jan-22 17:30N 57°07' E 011°38'816.6
2018-Jan-22 17:00N 57°14' E 011°32'816.7
2018-Jan-22 16:30N 57°22' E 011°28'815.8
2018-Jan-22 16:00N 57°29' E 011°20'816.0
2018-Jan-22 15:30N 57°35' E 011°10'815.5
2018-Jan-22 15:00N 57°40' E 010°59'815.9
2018-Jan-22 14:30N 57°45' E 010°48'816.7
2018-Jan-22 14:00N 57°47' E 010°33'11317.0
2018-Jan-22 07:20N 56°42' E 007°42'618.2
2018-Jan-22 06:59N 56°37' E 007°36'1318.1
2018-Jan-22 06:17N 56°26' E 007°25'618.1
2018-Jan-22 05:57N 56°20' E 007°19'18618.3
2018-Jan-21 19:48N 53°36' E 004°50'618.8
2018-Jan-21 19:30N 53°30' E 004°46'1019.9
2018-Jan-21 19:01N 53°21' E 004°40'1020.2
2018-Jan-21 18:30N 53°12' E 004°33'1019.9
2018-Jan-21 18:00N 53°03' E 004°26'919.0
2018-Jan-21 17:30N 52°55' E 004°18'1318.8
2018-Jan-21 16:50N 52°45' E 004°06'818.8
2018-Jan-21 16:25N 52°39' E 003°57'1018.8
2018-Jan-21 15:55N 52°32' E 003°46'918.5
2018-Jan-21 15:26N 52°26' E 003°36'6417.4
2018-Jan-21 11:47N 51°38' E 002°27'516.5
2018-Jan-21 11:30N 51°35' E 002°22'816.2
2018-Jan-21 11:00N 51°28' E 002°14'815.5
2018-Jan-21 10:31N 51°22' E 002°07'815.6
2018-Jan-21 10:01N 51°14' E 002°03'815.6
2018-Jan-21 09:30N 51°10' E 001°53'815.2
2018-Jan-21 09:00N 51°06' E 001°44'815.1
2018-Jan-21 08:30N 50°60' E 001°36'815.1
2018-Jan-21 08:00N 50°54' E 001°28'816.0
2018-Jan-21 07:30N 50°46' E 001°25'2216.0
2018-Jan-21 06:08N 50°30' E 001°01'1416.4
2018-Jan-21 05:17N 50°26' E 000°40'916.6
2018-Jan-21 04:45N 50°23' E 000°27'516.5
2018-Jan-21 04:28N 50°22' E 000°20'816.3
2018-Jan-21 04:00N 50°20' E 000°09'816.3
2018-Jan-21 03:30N 50°19' W 000°04'916.3
2018-Jan-21 02:59N 50°17' W 000°17'9518.4
2018-Jan-20 21:49N 49°52' W 002°40'619.6
2018-Jan-20 21:30N 49°51' W 002°49'1119.4
2018-Jan-20 20:57N 49°46' W 003°04'1119.1
2018-Jan-20 20:24N 49°41' W 003°19'2917.8
2018-Jan-20 18:46N 49°33' W 004°02'  
2018-Jan-18 11:42N 39°49' W 021°36'317.4
2018-Jan-18 11:30N 39°48' W 021°39'2017.5
2018-Jan-18 10:24N 39°37' W 022°00'2717.2
2018-Jan-18 08:50N 39°21' W 022°28'716.7
2018-Jan-18 08:25N 39°15' W 022°32'1617.2
2018-Jan-18 07:29N 39°05' W 022°48'917.0
2018-Jan-18 06:59N 38°59' W 022°56'817.1
2018-Jan-18 06:30N 38°54' W 023°04'917.0
2018-Jan-18 06:00N 38°48' W 023°13'817.3
2018-Jan-18 05:30N 38°43' W 023°22'916.9
2018-Jan-18 04:59N 38°37' W 023°30'1016.8
2018-Jan-18 04:25N 38°31' W 023°40'1217.0
2018-Jan-18 03:41N 38°23' W 023°52'316.9
2018-Jan-18 03:29N 38°21' W 023°55'817.3
2018-Jan-18 03:00N 38°16' W 024°04'917.1
2018-Jan-18 02:30N 38°11' W 024°12'917.2
2018-Jan-18 02:00N 38°05' W 024°21'917.2
2018-Jan-18 01:30N 38°00' W 024°29'917.3
2018-Jan-18 01:00N 37°54' W 024°38'1717.2
2018-Jan-18 00:00N 37°44' W 024°54'116.6
2018-Jan-17 23:57N 37°43' W 024°55'  
Track history (hours):
 
Tides and Currents Weather Stations Pressure Air Temp Water Temp Dewpoint Dewpoint Depression Visibility Wind Speed Wind Dir Waves Ship Positions

Slotergracht

Last reported at 2018-Jan-23 07:07 UTC. Time now 2018-Jan-23 10:13 UTC.
Position N 54°24' E 011°47'.

Length 168 m; beam 25 m.

Type: Cargo ship. MMSI: 246456000.

Date/timePositionNaut miles runAvg speedWind from/ knotsBaromVisibWave heightAir tempDewpointWater temp
2018-Jan-23 07:07N 54°24' E 011°47'216.5
2018-Jan-23 07:00N 54°25' E 011°44'816.1
2018-Jan-23 06:30N 54°29' E 011°32'816.5
2018-Jan-23 06:00N 54°32' E 011°19'816.0
2018-Jan-23 05:30N 54°35' E 011°06'816.2
2018-Jan-23 05:00N 54°38' E 010°53'714.3
2018-Jan-23 04:30N 54°44' E 010°47'714.8
2018-Jan-23 04:00N 54°51' E 010°50'612.8
2018-Jan-23 03:30N 54°57' E 010°54'613.1
2018-Jan-23 03:00N 55°03' E 011°00'713.6
2018-Jan-23 02:30N 55°09' E 010°60'510.8
2018-Jan-23 02:00N 55°14' E 011°06'611.2
2018-Jan-23 01:28N 55°19' E 011°02'10113.7
2018-Jan-22 18:07N 56°57' E 011°45'216.3
2018-Jan-22 18:00N 56°59' E 011°44'816.8
2018-Jan-22 17:30N 57°07' E 011°38'816.6
2018-Jan-22 17:00N 57°14' E 011°32'816.7
2018-Jan-22 16:30N 57°22' E 011°28'815.8
2018-Jan-22 16:00N 57°29' E 011°20'816.0
2018-Jan-22 15:30N 57°35' E 011°10'815.5
2018-Jan-22 15:00N 57°40' E 010°59'815.9
2018-Jan-22 14:30N 57°45' E 010°48'816.7
2018-Jan-22 14:00N 57°47' E 010°33'11317.0
2018-Jan-22 07:20N 56°42' E 007°42'618.2
2018-Jan-22 06:59N 56°37' E 007°36'1318.1
2018-Jan-22 06:17N 56°26' E 007°25'618.1
2018-Jan-22 05:57N 56°20' E 007°19'18618.3
2018-Jan-21 19:48N 53°36' E 004°50'618.8
2018-Jan-21 19:30N 53°30' E 004°46'1019.9
2018-Jan-21 19:01N 53°21' E 004°40'1020.2
2018-Jan-21 18:30N 53°12' E 004°33'1019.9
2018-Jan-21 18:00N 53°03' E 004°26'919.0
2018-Jan-21 17:30N 52°55' E 004°18'1318.8
2018-Jan-21 16:50N 52°45' E 004°06'818.8
2018-Jan-21 16:25N 52°39' E 003°57'1018.8
2018-Jan-21 15:55N 52°32' E 003°46'918.5
2018-Jan-21 15:26N 52°26' E 003°36'6417.4
2018-Jan-21 11:47N 51°38' E 002°27'516.5
2018-Jan-21 11:30N 51°35' E 002°22'816.2
2018-Jan-21 11:00N 51°28' E 002°14'815.5
2018-Jan-21 10:31N 51°22' E 002°07'815.6
2018-Jan-21 10:01N 51°14' E 002°03'815.6
2018-Jan-21 09:30N 51°10' E 001°53'815.2
2018-Jan-21 09:00N 51°06' E 001°44'815.1
2018-Jan-21 08:30N 50°60' E 001°36'815.1
2018-Jan-21 08:00N 50°54' E 001°28'816.0
2018-Jan-21 07:30N 50°46' E 001°25'2216.0
2018-Jan-21 06:08N 50°30' E 001°01'1416.4
2018-Jan-21 05:17N 50°26' E 000°40'916.6
2018-Jan-21 04:45N 50°23' E 000°27'516.5
2018-Jan-21 04:28N 50°22' E 000°20'816.3
2018-Jan-21 04:00N 50°20' E 000°09'816.3
2018-Jan-21 03:30N 50°19' W 000°04'916.3
2018-Jan-21 02:59N 50°17' W 000°17'9518.4
2018-Jan-20 21:49N 49°52' W 002°40'619.6
2018-Jan-20 21:30N 49°51' W 002°49'1119.4
2018-Jan-20 20:57N 49°46' W 003°04'1119.1
2018-Jan-20 20:24N 49°41' W 003°19'2917.8
2018-Jan-20 18:46N 49°33' W 004°02'  
2018-Jan-18 11:42N 39°49' W 021°36'317.4
2018-Jan-18 11:30N 39°48' W 021°39'2017.5
2018-Jan-18 10:24N 39°37' W 022°00'2717.2
2018-Jan-18 08:50N 39°21' W 022°28'716.7
2018-Jan-18 08:25N 39°15' W 022°32'1617.2
2018-Jan-18 07:29N 39°05' W 022°48'917.0
2018-Jan-18 06:59N 38°59' W 022°56'817.1
2018-Jan-18 06:30N 38°54' W 023°04'917.0
2018-Jan-18 06:00N 38°48' W 023°13'817.3
2018-Jan-18 05:30N 38°43' W 023°22'916.9
2018-Jan-18 04:59N 38°37' W 023°30'1016.8
2018-Jan-18 04:25N 38°31' W 023°40'1217.0
2018-Jan-18 03:41N 38°23' W 023°52'316.9
2018-Jan-18 03:29N 38°21' W 023°55'817.3
2018-Jan-18 03:00N 38°16' W 024°04'917.1
2018-Jan-18 02:30N 38°11' W 024°12'917.2
2018-Jan-18 02:00N 38°05' W 024°21'917.2
2018-Jan-18 01:30N 38°00' W 024°29'917.3
2018-Jan-18 01:00N 37°54' W 024°38'1717.2
2018-Jan-18 00:00N 37°44' W 024°54'116.6
2018-Jan-17 23:57N 37°43' W 024°55'  

Dump ship's entire track history